createdAt,value
2023-08-31T00:01:36.842Z,20.40
2023-08-31T00:06:43.435Z,19.10
2023-08-31T00:11:48.358Z,25.30
2023-08-31T00:16:59.014Z,23.60
2023-08-31T00:22:01.779Z,23.60
2023-08-31T00:27:07.936Z,22.20
2023-08-31T00:32:16.997Z,19.70
2023-08-31T00:37:22.318Z,20.50
2023-08-31T00:42:32.355Z,16.80
2023-08-31T00:47:37.727Z,16.90
2023-08-31T00:52:42.319Z,11.20
2023-08-31T00:57:45.868Z,17.00
2023-08-31T01:03:04.759Z,16.50
2023-08-31T01:08:46.973Z,20.10
2023-08-31T01:14:06.762Z,16.60
2023-08-31T01:19:51.150Z,20.90
2023-08-31T01:24:55.276Z,17.30
2023-08-31T01:29:57.985Z,16.90
2023-08-31T01:35:08.258Z,18.20
2023-08-31T01:40:24.735Z,19.20
2023-08-31T01:45:32.339Z,17.90
2023-08-31T01:50:35.152Z,18.30
2023-08-31T01:55:38.387Z,20.50
2023-08-31T02:00:41.275Z,19.40
2023-08-31T02:06:05.807Z,21.70
2023-08-31T02:11:08.521Z,16.50
2023-08-31T02:16:12.872Z,22.40
2023-08-31T02:21:16.715Z,17.60
2023-08-31T02:26:23.901Z,15.10
2023-08-31T02:31:26.703Z,15.70
2023-08-31T02:36:31.368Z,14.20
2023-08-31T02:41:43.107Z,13.70
2023-08-31T02:47:36.184Z,17.50
2023-08-31T02:52:49.762Z,14.20
2023-08-31T02:57:54.233Z,12.70
2023-08-31T03:02:56.957Z,17.90
2023-08-31T03:07:59.756Z,10.90
2023-08-31T03:13:05.816Z,6.60
2023-08-31T03:18:10.979Z,7.70
2023-08-31T03:23:14.311Z,8.10
2023-08-31T03:28:17.217Z,7.40
2023-08-31T03:33:22.362Z,7.50
2023-08-31T03:38:27.118Z,8.00
2023-08-31T03:43:30.209Z,6.60
2023-08-31T03:48:33.016Z,5.60
2023-08-31T03:53:38.363Z,4.50
2023-08-31T03:58:41.045Z,4.10
2023-08-31T04:03:47.013Z,2.90
2023-08-31T04:08:50.097Z,9.40
2023-08-31T04:13:54.437Z,4.30
2023-08-31T04:19:01.437Z,2.70
2023-08-31T04:24:10.858Z,3.30
2023-08-31T04:29:20.071Z,4.60
2023-08-31T04:34:28.195Z,2.80
2023-08-31T04:39:33.318Z,5.10
2023-08-31T04:44:42.562Z,4.20
2023-08-31T04:49:45.338Z,3.50
2023-08-31T04:54:48.205Z,6.10
2023-08-31T05:00:15.448Z,4.20
2023-08-31T05:05:23.214Z,4.60
2023-08-31T05:10:35.359Z,4.30
2023-08-31T05:15:40.479Z,5.20
2023-08-31T05:20:52.045Z,4.40
2023-08-31T05:25:55.010Z,3.20
2023-08-31T05:31:01.660Z,4.20
2023-08-31T05:36:08.490Z,3.40
2023-08-31T05:41:11.163Z,5.20
2023-08-31T05:46:14.148Z,4.20
2023-08-31T05:51:19.387Z,5.30
2023-08-31T05:56:22.125Z,4.90
2023-08-31T06:01:24.766Z,7.20
2023-08-31T06:06:27.604Z,5.40
2023-08-31T06:11:32.056Z,5.80
2023-08-31T06:16:38.871Z,5.50
2023-08-31T06:21:42.483Z,6.90
2023-08-31T06:26:45.341Z,7.10
2023-08-31T06:31:48.069Z,6.40
2023-08-31T06:36:56.666Z,8.20
2023-08-31T06:42:03.355Z,8.60
2023-08-31T06:47:06.297Z,9.60
2023-08-31T06:52:21.731Z,8.60
2023-08-31T06:57:35.776Z,9.30
2023-08-31T07:02:42.910Z,9.10
2023-08-31T07:07:45.684Z,11.20
2023-08-31T07:12:48.619Z,12.80
2023-08-31T07:18:38.717Z,14.40
2023-08-31T07:23:41.934Z,13.00
2023-08-31T07:28:44.736Z,15.90
2023-08-31T07:33:50.561Z,20.90
2023-08-31T07:38:53.397Z,20.10
2023-08-31T07:44:24.633Z,28.20
2023-08-31T07:51:24.339Z,30.20
2023-08-31T07:56:26.978Z,13.80
2023-08-31T08:02:48.390Z,13.50
2023-08-31T08:13:48.366Z,15.70
2023-08-31T08:18:54.575Z,15.30
2023-08-31T08:30:38.367Z,20.50
2023-08-31T08:44:19.444Z,17.60
2023-08-31T08:49:24.465Z,20.00
2023-08-31T08:54:28.695Z,24.60
2023-08-31T09:00:03.542Z,25.40
2023-08-31T09:05:09.579Z,22.90
2023-08-31T09:10:13.339Z,23.20
2023-08-31T09:15:16.111Z,23.80
2023-08-31T09:24:00.642Z,17.60
2023-08-31T10:16:21.218Z,16.20
2023-08-31T10:21:40.327Z,15.50
2023-08-31T10:26:51.608Z,16.40
2023-08-31T10:32:04.407Z,18.40
2023-08-31T10:37:22.587Z,18.20
2023-08-31T10:42:25.271Z,17.90
2023-08-31T10:47:42.662Z,21.70
2023-08-31T10:52:48.444Z,20.40
2023-08-31T10:58:12.973Z,20.80
2023-08-31T11:03:16.007Z,16.20
2023-08-31T11:08:27.447Z,15.30
2023-08-31T11:19:08.346Z,14.70
2023-08-31T11:24:41.674Z,15.10
2023-08-31T11:29:59.911Z,15.10
2023-08-31T11:35:08.854Z,19.60
2023-08-31T11:40:12.397Z,17.40
2023-08-31T11:45:20.249Z,20.50
2023-08-31T11:56:51.956Z,18.70
2023-08-31T12:03:17.400Z,22.10
2023-08-31T12:08:29.056Z,18.40
2023-08-31T12:13:36.307Z,17.00
2023-08-31T12:18:53.658Z,20.20
2023-08-31T12:24:03.536Z,15.70
2023-08-31T12:29:16.525Z,18.40
2023-08-31T12:34:19.258Z,17.50
2023-08-31T12:39:22.015Z,13.70
2023-08-31T12:44:29.920Z,13.50
2023-08-31T12:49:35.098Z,13.10
2023-08-31T12:54:37.937Z,11.60
2023-08-31T12:59:43.669Z,14.20
2023-08-31T13:04:47.103Z,21.30
2023-08-31T13:09:53.114Z,14.10
2023-08-31T13:14:56.072Z,12.70
2023-08-31T13:20:05.208Z,12.00
2023-08-31T13:25:12.539Z,11.20
2023-08-31T13:30:15.462Z,14.60
2023-08-31T13:35:18.396Z,11.60
2023-08-31T13:40:21.125Z,15.60
2023-08-31T13:45:29.853Z,11.60
2023-08-31T13:50:33.888Z,11.00
2023-08-31T13:55:39.299Z,9.60
2023-08-31T14:00:43.345Z,12.50
2023-08-31T14:05:52.482Z,10.20
2023-08-31T14:11:05.327Z,14.50
2023-08-31T14:16:26.185Z,17.00
2023-08-31T14:21:31.595Z,13.70
2023-08-31T14:26:36.608Z,15.10
2023-08-31T14:31:44.797Z,23.90
2023-08-31T14:36:51.805Z,14.70
2023-08-31T14:41:58.898Z,15.60
2023-08-31T14:47:01.626Z,16.00
2023-08-31T14:52:09.641Z,15.30
2023-08-31T14:57:15.957Z,16.40
2023-08-31T15:02:22.749Z,14.30
2023-08-31T15:07:26.870Z,13.00
2023-08-31T15:12:31.653Z,18.20
2023-08-31T15:17:35.673Z,19.60
2023-08-31T15:22:54.425Z,17.30
2023-08-31T15:27:57.063Z,14.70
2023-08-31T15:33:04.662Z,21.70
2023-08-31T15:38:09.769Z,19.10
2023-08-31T15:43:12.670Z,19.90
2023-08-31T15:48:19.717Z,19.10
2023-08-31T15:53:25.674Z,18.50
2023-08-31T15:58:31.151Z,19.70
2023-08-31T16:03:49.331Z,17.80
2023-08-31T16:30:35.652Z,14.80
2023-08-31T16:49:06.077Z,13.20
2023-08-31T16:54:08.975Z,10.80
2023-08-31T16:59:11.625Z,12.70
2023-08-31T17:05:19.648Z,12.70
2023-08-31T17:23:10.051Z,10.70
2023-08-31T17:28:32.217Z,12.30
2023-08-31T17:33:34.377Z,13.20
2023-08-31T17:38:41.473Z,13.50
2023-08-31T17:43:42.841Z,19.30
2023-08-31T17:49:12.099Z,15.10
2023-08-31T17:54:13.500Z,14.10
2023-08-31T17:59:25.799Z,14.80
2023-08-31T18:04:27.080Z,15.40
2023-08-31T18:09:37.081Z,18.10
2023-08-31T18:14:44.449Z,13.50
2023-08-31T18:19:46.261Z,13.50
2023-08-31T18:24:47.737Z,15.50
2023-08-31T18:29:50.191Z,19.50
2023-08-31T18:34:53.534Z,16.60
2023-08-31T18:39:57.259Z,9.70
2023-08-31T18:45:02.794Z,7.10
2023-08-31T18:50:10.974Z,10.80
2023-08-31T18:55:15.504Z,9.00
2023-08-31T19:00:17.658Z,13.50
2023-08-31T19:05:19.023Z,11.10
2023-08-31T19:10:25.084Z,13.10
2023-08-31T19:15:28.714Z,14.40
2023-08-31T19:21:19.731Z,18.60
2023-08-31T19:26:24.990Z,17.70
2023-08-31T19:31:55.393Z,19.40
2023-08-31T19:36:56.770Z,16.50
2023-08-31T19:42:01.189Z,11.40
2023-08-31T19:47:14.778Z,9.00
2023-08-31T19:52:16.960Z,10.90
2023-08-31T19:57:20.753Z,13.90
2023-08-31T20:02:24.292Z,10.50
2023-08-31T20:07:28.261Z,11.90
2023-08-31T20:12:31.726Z,10.80
2023-08-31T20:17:48.437Z,10.00
2023-08-31T20:23:38.659Z,12.20
2023-08-31T20:28:47.182Z,11.70
2023-08-31T20:33:51.283Z,13.40
2023-08-31T20:38:52.860Z,12.70
2023-08-31T20:44:03.596Z,15.80
2023-08-31T20:49:05.896Z,12.50
2023-08-31T20:54:07.941Z,11.20
2023-08-31T20:59:12.302Z,10.00
2023-08-31T21:04:16.867Z,11.50
2023-08-31T21:09:18.296Z,10.30
2023-08-31T21:14:19.673Z,8.40
2023-08-31T21:19:22.465Z,7.30
2023-08-31T21:24:24.940Z,13.70
2023-08-31T21:29:26.250Z,7.00
2023-08-31T21:34:30.717Z,8.60
2023-08-31T21:39:34.259Z,9.80
2023-08-31T21:44:35.726Z,13.50
2023-08-31T21:49:39.065Z,11.90
2023-08-31T21:54:40.474Z,10.70
2023-08-31T21:59:44.396Z,12.50
2023-08-31T22:04:45.811Z,11.70
2023-08-31T22:09:52.009Z,13.60
2023-08-31T22:14:55.934Z,13.60
2023-08-31T22:19:59.360Z,15.30
2023-08-31T22:25:01.511Z,16.60
2023-08-31T22:30:04.913Z,13.90
2023-08-31T22:35:11.957Z,14.50
2023-08-31T22:40:16.019Z,18.50
2023-08-31T22:45:19.880Z,21.40
2023-08-31T22:50:26.622Z,14.30
2023-08-31T22:55:30.532Z,16.20
2023-08-31T23:00:33.623Z,15.20
2023-08-31T23:05:34.974Z,19.10
2023-08-31T23:10:42.296Z,23.40
2023-08-31T23:15:45.945Z,18.90
2023-08-31T23:20:53.079Z,19.70
2023-08-31T23:25:54.568Z,21.50
2023-08-31T23:31:02.290Z,22.60
2023-08-31T23:36:08.170Z,23.50
2023-08-31T23:41:10.059Z,32.60
2023-08-31T23:46:11.820Z,28.10
2023-08-31T23:51:13.270Z,28.80
2023-08-31T23:56:17.842Z,22.60
